sensor_id;sensor_type;location;lat;lon;timestamp;temperature;humidity
81630;DHT22;71039;49.500;10.418;2023-10-09T00:00:08;15.20;61.10
81630;DHT22;71039;49.500;10.418;2023-10-09T00:02:34;15.20;61.20
81630;DHT22;71039;49.500;10.418;2023-10-09T00:04:59;15.10;61.20
81630;DHT22;71039;49.500;10.418;2023-10-09T00:07:25;15.10;61.20
81630;DHT22;71039;49.500;10.418;2023-10-09T00:09:50;15.00;61.30
81630;DHT22;71039;49.500;10.418;2023-10-09T00:12:17;15.00;61.30
81630;DHT22;71039;49.500;10.418;2023-10-09T00:14:43;15.00;61.50
81630;DHT22;71039;49.500;10.418;2023-10-09T00:17:12;15.00;61.40
81630;DHT22;71039;49.500;10.418;2023-10-09T00:19:37;15.00;61.60
81630;DHT22;71039;49.500;10.418;2023-10-09T00:22:03;15.00;61.70
81630;DHT22;71039;49.500;10.418;2023-10-09T00:24:29;15.00;61.80
81630;DHT22;71039;49.500;10.418;2023-10-09T00:26:54;15.00;61.80
81630;DHT22;71039;49.500;10.418;2023-10-09T00:29:20;14.90;61.90
81630;DHT22;71039;49.500;10.418;2023-10-09T00:31:46;15.00;61.90
81630;DHT22;71039;49.500;10.418;2023-10-09T00:34:11;14.90;62.00
81630;DHT22;71039;49.500;10.418;2023-10-09T00:36:37;14.90;62.00
81630;DHT22;71039;49.500;10.418;2023-10-09T00:39:02;14.90;62.00
81630;DHT22;71039;49.500;10.418;2023-10-09T00:41:28;14.90;62.10
81630;DHT22;71039;49.500;10.418;2023-10-09T00:43:53;14.90;62.10
81630;DHT22;71039;49.500;10.418;2023-10-09T00:46:21;14.90;62.10
81630;DHT22;71039;49.500;10.418;2023-10-09T00:48:48;14.90;62.10
81630;DHT22;71039;49.500;10.418;2023-10-09T00:51:16;14.90;62.10
81630;DHT22;71039;49.500;10.418;2023-10-09T00:53:46;14.90;62.10
81630;DHT22;71039;49.500;10.418;2023-10-09T00:56:12;14.90;62.20
81630;DHT22;71039;49.500;10.418;2023-10-09T00:58:38;14.90;62.20
81630;DHT22;71039;49.500;10.418;2023-10-09T01:01:03;14.90;62.20
81630;DHT22;71039;49.500;10.418;2023-10-09T01:03:29;14.90;62.20
81630;DHT22;71039;49.500;10.418;2023-10-09T01:05:56;14.90;62.20
81630;DHT22;71039;49.500;10.418;2023-10-09T01:08:23;14.90;62.20
81630;DHT22;71039;49.500;10.418;2023-10-09T01:10:49;14.90;62.30
81630;DHT22;71039;49.500;10.418;2023-10-09T01:13:14;14.90;62.30
81630;DHT22;71039;49.500;10.418;2023-10-09T01:15:40;14.90;62.30
81630;DHT22;71039;49.500;10.418;2023-10-09T01:18:05;14.90;62.30
81630;DHT22;71039;49.500;10.418;2023-10-09T01:20:31;14.90;62.30
81630;DHT22;71039;49.500;10.418;2023-10-09T01:23:00;14.90;62.30
81630;DHT22;71039;49.500;10.418;2023-10-09T01:25:25;14.90;62.40
81630;DHT22;71039;49.500;10.418;2023-10-09T01:27:51;14.90;62.40
81630;DHT22;71039;49.500;10.418;2023-10-09T01:30:16;14.90;62.50
81630;DHT22;71039;49.500;10.418;2023-10-09T01:32:42;14.80;62.50
81630;DHT22;71039;49.500;10.418;2023-10-09T01:35:07;14.80;62.40
81630;DHT22;71039;49.500;10.418;2023-10-09T01:37:33;14.90;62.50
81630;DHT22;71039;49.500;10.418;2023-10-09T01:39:59;14.80;62.50
81630;DHT22;71039;49.500;10.418;2023-10-09T01:42:25;14.80;62.50
81630;DHT22;71039;49.500;10.418;2023-10-09T01:44:51;14.80;62.50
81630;DHT22;71039;49.500;10.418;2023-10-09T01:47:17;14.80;62.50
81630;DHT22;71039;49.500;10.418;2023-10-09T01:49:43;14.80;62.50
81630;DHT22;71039;49.500;10.418;2023-10-09T01:52:12;14.80;62.50
81630;DHT22;71039;49.500;10.418;2023-10-09T01:54:38;14.80;62.50
81630;DHT22;71039;49.500;10.418;2023-10-09T01:57:05;14.80;62.50
81630;DHT22;71039;49.500;10.418;2023-10-09T01:59:31;14.80;62.50
81630;DHT22;71039;49.500;10.418;2023-10-09T02:01:56;14.80;62.50
81630;DHT22;71039;49.500;10.418;2023-10-09T02:04:22;14.70;62.50
81630;DHT22;71039;49.500;10.418;2023-10-09T02:06:47;14.70;62.50
81630;DHT22;71039;49.500;10.418;2023-10-09T02:09:13;14.70;62.50
81630;DHT22;71039;49.500;10.418;2023-10-09T02:11:39;14.70;62.50
81630;DHT22;71039;49.500;10.418;2023-10-09T02:14:04;14.70;62.50
81630;DHT22;71039;49.500;10.418;2023-10-09T02:16:30;14.70;62.50
81630;DHT22;71039;49.500;10.418;2023-10-09T02:18:55;14.70;62.40
81630;DHT22;71039;49.500;10.418;2023-10-09T02:21:22;14.60;62.40
81630;DHT22;71039;49.500;10.418;2023-10-09T02:23:48;14.60;62.40
81630;DHT22;71039;49.500;10.418;2023-10-09T02:26:16;14.60;62.40
81630;DHT22;71039;49.500;10.418;2023-10-09T02:28:41;14.60;62.50
81630;DHT22;71039;49.500;10.418;2023-10-09T02:31:11;14.50;62.50
81630;DHT22;71039;49.500;10.418;2023-10-09T02:33:37;14.50;62.60
81630;DHT22;71039;49.500;10.418;2023-10-09T02:36:03;14.50;62.50
81630;DHT22;71039;49.500;10.418;2023-10-09T02:38:28;14.50;62.50
81630;DHT22;71039;49.500;10.418;2023-10-09T02:40:54;14.50;62.60
81630;DHT22;71039;49.500;10.418;2023-10-09T02:43:19;14.40;62.60
81630;DHT22;71039;49.500;10.418;2023-10-09T02:45:45;14.40;62.60
81630;DHT22;71039;49.500;10.418;2023-10-09T02:48:10;14.40;62.60
81630;DHT22;71039;49.500;10.418;2023-10-09T02:50:36;14.40;62.60
81630;DHT22;71039;49.500;10.418;2023-10-09T02:53:02;14.40;62.60
81630;DHT22;71039;49.500;10.418;2023-10-09T02:55:27;14.30;62.60
81630;DHT22;71039;49.500;10.418;2023-10-09T02:57:54;14.30;62.50
81630;DHT22;71039;49.500;10.418;2023-10-09T03:00:20;14.30;62.50
81630;DHT22;71039;49.500;10.418;2023-10-09T03:02:46;14.30;62.50
81630;DHT22;71039;49.500;10.418;2023-10-09T03:05:11;14.20;62.50
81630;DHT22;71039;49.500;10.418;2023-10-09T03:07:37;14.20;62.50
81630;DHT22;71039;49.500;10.418;2023-10-09T03:10:03;14.20;62.50
81630;DHT22;71039;49.500;10.418;2023-10-09T03:12:28;14.10;62.50
81630;DHT22;71039;49.500;10.418;2023-10-09T03:14:54;14.10;62.50
81630;DHT22;71039;49.500;10.418;2023-10-09T03:17:19;14.10;62.60
81630;DHT22;71039;49.500;10.418;2023-10-09T03:19:45;14.00;62.60
81630;DHT22;71039;49.500;10.418;2023-10-09T03:22:10;14.00;62.60
81630;DHT22;71039;49.500;10.418;2023-10-09T03:24:38;14.00;62.70
81630;DHT22;71039;49.500;10.418;2023-10-09T03:27:04;13.90;62.70
81630;DHT22;71039;49.500;10.418;2023-10-09T03:29:30;13.90;62.70
81630;DHT22;71039;49.500;10.418;2023-10-09T03:31:55;13.90;62.70
81630;DHT22;71039;49.500;10.418;2023-10-09T03:34:21;13.90;62.80
81630;DHT22;71039;49.500;10.418;2023-10-09T03:36:46;13.90;63.00
81630;DHT22;71039;49.500;10.418;2023-10-09T03:39:12;13.90;63.00
81630;DHT22;71039;49.500;10.418;2023-10-09T03:41:37;13.80;63.10
81630;DHT22;71039;49.500;10.418;2023-10-09T03:44:03;13.80;63.10
81630;DHT22;71039;49.500;10.418;2023-10-09T03:46:29;13.80;63.10
81630;DHT22;71039;49.500;10.418;2023-10-09T03:48:54;13.80;63.00
81630;DHT22;71039;49.500;10.418;2023-10-09T03:51:20;13.70;63.00
81630;DHT22;71039;49.500;10.418;2023-10-09T03:53:45;13.70;63.00
81630;DHT22;71039;49.500;10.418;2023-10-09T03:56:11;13.70;63.00
81630;DHT22;71039;49.500;10.418;2023-10-09T03:58:36;13.70;63.00
81630;DHT22;71039;49.500;10.418;2023-10-09T04:01:07;13.60;63.00
81630;DHT22;71039;49.500;10.418;2023-10-09T04:03:33;13.60;63.10
81630;DHT22;71039;49.500;10.418;2023-10-09T04:05:58;13.60;63.10
81630;DHT22;71039;49.500;10.418;2023-10-09T04:08:25;13.60;63.10
81630;DHT22;71039;49.500;10.418;2023-10-09T04:10:51;13.60;63.10
81630;DHT22;71039;49.500;10.418;2023-10-09T04:13:17;13.50;63.20
81630;DHT22;71039;49.500;10.418;2023-10-09T04:15:43;13.50;63.20
81630;DHT22;71039;49.500;10.418;2023-10-09T04:18:09;13.50;63.40
81630;DHT22;71039;49.500;10.418;2023-10-09T04:20:34;13.50;63.60
81630;DHT22;71039;49.500;10.418;2023-10-09T04:23:00;13.50;63.80
81630;DHT22;71039;49.500;10.418;2023-10-09T04:25:25;13.50;64.00
81630;DHT22;71039;49.500;10.418;2023-10-09T04:27:52;13.50;64.20
81630;DHT22;71039;49.500;10.418;2023-10-09T04:30:18;13.50;64.40
81630;DHT22;71039;49.500;10.418;2023-10-09T04:32:44;13.60;64.50
81630;DHT22;71039;49.500;10.418;2023-10-09T04:35:10;13.60;64.60
81630;DHT22;71039;49.500;10.418;2023-10-09T04:37:35;13.70;64.60
81630;DHT22;71039;49.500;10.418;2023-10-09T04:40:01;13.70;64.70
81630;DHT22;71039;49.500;10.418;2023-10-09T04:42:26;13.80;64.60
81630;DHT22;71039;49.500;10.418;2023-10-09T04:44:52;13.90;64.60
81630;DHT22;71039;49.500;10.418;2023-10-09T04:47:18;13.90;64.50
81630;DHT22;71039;49.500;10.418;2023-10-09T04:49:43;13.90;64.40
81630;DHT22;71039;49.500;10.418;2023-10-09T04:52:09;14.00;64.40
81630;DHT22;71039;49.500;10.418;2023-10-09T04:54:34;14.00;64.30
81630;DHT22;71039;49.500;10.418;2023-10-09T04:57:00;14.10;64.20
81630;DHT22;71039;49.500;10.418;2023-10-09T04:59:25;14.10;64.10
81630;DHT22;71039;49.500;10.418;2023-10-09T05:01:51;14.20;64.10
81630;DHT22;71039;49.500;10.418;2023-10-09T05:04:17;14.20;64.00
81630;DHT22;71039;49.500;10.418;2023-10-09T05:06:42;14.20;64.10
81630;DHT22;71039;49.500;10.418;2023-10-09T05:09:09;14.20;64.20
81630;DHT22;71039;49.500;10.418;2023-10-09T05:11:35;14.30;64.30
81630;DHT22;71039;49.500;10.418;2023-10-09T05:14:01;14.30;64.30
81630;DHT22;71039;49.500;10.418;2023-10-09T05:16:27;14.40;64.40
81630;DHT22;71039;49.500;10.418;2023-10-09T05:18:54;14.40;64.40
81630;DHT22;71039;49.500;10.418;2023-10-09T05:21:20;14.50;64.40
81630;DHT22;71039;49.500;10.418;2023-10-09T05:23:45;14.50;64.40
81630;DHT22;71039;49.500;10.418;2023-10-09T05:26:11;14.60;64.40
81630;DHT22;71039;49.500;10.418;2023-10-09T05:28:36;14.70;64.30
81630;DHT22;71039;49.500;10.418;2023-10-09T05:31:02;14.70;64.30
81630;DHT22;71039;49.500;10.418;2023-10-09T05:33:27;14.80;64.20
81630;DHT22;71039;49.500;10.418;2023-10-09T05:35:53;14.80;64.10
81630;DHT22;71039;49.500;10.418;2023-10-09T05:38:18;14.90;64.00
81630;DHT22;71039;49.500;10.418;2023-10-09T05:40:44;15.00;63.90
81630;DHT22;71039;49.500;10.418;2023-10-09T05:43:10;15.00;63.70
81630;DHT22;71039;49.500;10.418;2023-10-09T05:45:35;15.00;63.60
81630;DHT22;71039;49.500;10.418;2023-10-09T05:48:01;15.10;63.50
81630;DHT22;71039;49.500;10.418;2023-10-09T05:50:27;15.20;63.50
81630;DHT22;71039;49.500;10.418;2023-10-09T05:52:56;15.20;63.40
81630;DHT22;71039;49.500;10.418;2023-10-09T05:55:24;15.30;63.40
81630;DHT22;71039;49.500;10.418;2023-10-09T05:57:50;15.30;63.40
81630;DHT22;71039;49.500;10.418;2023-10-09T06:00:16;15.40;63.40
81630;DHT22;71039;49.500;10.418;2023-10-09T06:02:41;15.40;63.30
81630;DHT22;71039;49.500;10.418;2023-10-09T06:05:07;15.50;63.30
81630;DHT22;71039;49.500;10.418;2023-10-09T06:07:32;15.50;63.20
81630;DHT22;71039;49.500;10.418;2023-10-09T06:09:58;15.60;63.20
81630;DHT22;71039;49.500;10.418;2023-10-09T06:12:23;15.60;63.10
81630;DHT22;71039;49.500;10.418;2023-10-09T06:14:49;15.60;63.00
81630;DHT22;71039;49.500;10.418;2023-10-09T06:17:14;15.70;63.00
81630;DHT22;71039;49.500;10.418;2023-10-09T06:19:40;15.80;62.90
81630;DHT22;71039;49.500;10.418;2023-10-09T06:22:05;15.80;62.90
81630;DHT22;71039;49.500;10.418;2023-10-09T06:24:31;15.80;62.90
81630;DHT22;71039;49.500;10.418;2023-10-09T06:26:56;15.90;62.80
81630;DHT22;71039;49.500;10.418;2023-10-09T06:29:22;16.00;62.80
81630;DHT22;71039;49.500;10.418;2023-10-09T06:31:47;16.00;62.80
81630;DHT22;71039;49.500;10.418;2023-10-09T06:34:13;16.00;62.80
81630;DHT22;71039;49.500;10.418;2023-10-09T06:36:38;16.10;62.70
81630;DHT22;71039;49.500;10.418;2023-10-09T06:39:04;16.10;62.70
81630;DHT22;71039;49.500;10.418;2023-10-09T06:41:30;16.20;62.60
81630;DHT22;71039;49.500;10.418;2023-10-09T06:43:56;16.30;62.60
81630;DHT22;71039;49.500;10.418;2023-10-09T06:46:21;16.40;62.60
81630;DHT22;71039;49.500;10.418;2023-10-09T06:48:47;16.40;62.50
81630;DHT22;71039;49.500;10.418;2023-10-09T06:51:13;16.50;62.60
81630;DHT22;71039;49.500;10.418;2023-10-09T06:53:39;16.50;62.60
81630;DHT22;71039;49.500;10.418;2023-10-09T06:56:05;16.60;62.60
81630;DHT22;71039;49.500;10.418;2023-10-09T06:58:31;16.70;62.70
81630;DHT22;71039;49.500;10.418;2023-10-09T07:00:56;16.80;62.80
81630;DHT22;71039;49.500;10.418;2023-10-09T07:03:22;16.90;62.80
81630;DHT22;71039;49.500;10.418;2023-10-09T07:05:47;17.00;62.80
81630;DHT22;71039;49.500;10.418;2023-10-09T07:08:12;17.00;62.70
81630;DHT22;71039;49.500;10.418;2023-10-09T07:10:38;17.20;62.60
81630;DHT22;71039;49.500;10.418;2023-10-09T07:13:04;17.20;62.50
81630;DHT22;71039;49.500;10.418;2023-10-09T07:15:29;17.40;62.30
81630;DHT22;71039;49.500;10.418;2023-10-09T07:17:54;17.50;62.20
81630;DHT22;71039;49.500;10.418;2023-10-09T07:20:20;17.60;61.90
81630;DHT22;71039;49.500;10.418;2023-10-09T07:22:45;17.70;61.70
81630;DHT22;71039;49.500;10.418;2023-10-09T07:25:11;17.80;61.50
81630;DHT22;71039;49.500;10.418;2023-10-09T07:27:36;17.80;61.40
81630;DHT22;71039;49.500;10.418;2023-10-09T07:30:02;17.90;61.20
81630;DHT22;71039;49.500;10.418;2023-10-09T07:32:28;18.00;61.10
81630;DHT22;71039;49.500;10.418;2023-10-09T07:34:53;18.00;61.00
81630;DHT22;71039;49.500;10.418;2023-10-09T07:37:23;18.10;60.90
81630;DHT22;71039;49.500;10.418;2023-10-09T07:39:51;18.20;60.80
81630;DHT22;71039;49.500;10.418;2023-10-09T07:42:17;18.20;60.70
81630;DHT22;71039;49.500;10.418;2023-10-09T07:44:43;18.30;60.70
81630;DHT22;71039;49.500;10.418;2023-10-09T07:47:09;18.40;60.70
81630;DHT22;71039;49.500;10.418;2023-10-09T07:49:35;18.40;60.90
81630;DHT22;71039;49.500;10.418;2023-10-09T07:52:00;18.50;61.10
81630;DHT22;71039;49.500;10.418;2023-10-09T07:54:26;18.60;61.20
81630;DHT22;71039;49.500;10.418;2023-10-09T07:56:52;18.70;61.30
81630;DHT22;71039;49.500;10.418;2023-10-09T07:59:17;18.90;61.20
81630;DHT22;71039;49.500;10.418;2023-10-09T08:01:44;19.00;61.20
81630;DHT22;71039;49.500;10.418;2023-10-09T08:04:10;19.10;61.20
81630;DHT22;71039;49.500;10.418;2023-10-09T08:06:35;19.30;61.30
81630;DHT22;71039;49.500;10.418;2023-10-09T08:09:01;19.40;61.30
81630;DHT22;71039;49.500;10.418;2023-10-09T08:11:27;19.60;61.30
81630;DHT22;71039;49.500;10.418;2023-10-09T08:13:52;19.70;61.10
81630;DHT22;71039;49.500;10.418;2023-10-09T08:16:18;20.00;60.90
81630;DHT22;71039;49.500;10.418;2023-10-09T08:18:43;20.10;60.70
81630;DHT22;71039;49.500;10.418;2023-10-09T08:21:09;20.30;60.50
81630;DHT22;71039;49.500;10.418;2023-10-09T08:23:34;20.50;60.40
81630;DHT22;71039;49.500;10.418;2023-10-09T08:26:00;20.60;60.10
81630;DHT22;71039;49.500;10.418;2023-10-09T08:28:26;20.80;59.80
81630;DHT22;71039;49.500;10.418;2023-10-09T08:30:51;20.90;59.50
81630;DHT22;71039;49.500;10.418;2023-10-09T08:33:17;21.10;59.30
81630;DHT22;71039;49.500;10.418;2023-10-09T08:35:43;21.20;59.00
81630;DHT22;71039;49.500;10.418;2023-10-09T08:38:09;21.30;58.80
81630;DHT22;71039;49.500;10.418;2023-10-09T08:40:37;21.50;58.60
81630;DHT22;71039;49.500;10.418;2023-10-09T08:43:15;21.60;58.40
81630;DHT22;71039;49.500;10.418;2023-10-09T08:45:45;21.70;57.80
81630;DHT22;71039;49.500;10.418;2023-10-09T08:48:11;21.90;57.60
81630;DHT22;71039;49.500;10.418;2023-10-09T08:50:37;22.00;57.50
81630;DHT22;71039;49.500;10.418;2023-10-09T08:53:03;22.10;57.10
81630;DHT22;71039;49.500;10.418;2023-10-09T08:55:29;22.30;56.80
81630;DHT22;71039;49.500;10.418;2023-10-09T08:57:55;22.50;56.40
81630;DHT22;71039;49.500;10.418;2023-10-09T09:00:21;22.50;56.00
81630;DHT22;71039;49.500;10.418;2023-10-09T09:02:47;22.60;55.50
81630;DHT22;71039;49.500;10.418;2023-10-09T09:05:20;22.70;55.50
81630;DHT22;71039;49.500;10.418;2023-10-09T09:07:46;22.80;54.70
81630;DHT22;71039;49.500;10.418;2023-10-09T09:10:11;22.90;54.70
81630;DHT22;71039;49.500;10.418;2023-10-09T09:12:38;22.90;54.20
81630;DHT22;71039;49.500;10.418;2023-10-09T09:15:07;22.90;53.90
81630;DHT22;71039;49.500;10.418;2023-10-09T09:17:38;23.00;53.60
81630;DHT22;71039;49.500;10.418;2023-10-09T09:20:22;22.90;53.30
81630;DHT22;71039;49.500;10.418;2023-10-09T09:22:52;22.90;52.30
81630;DHT22;71039;49.500;10.418;2023-10-09T09:25:18;22.90;52.70
81630;DHT22;71039;49.500;10.418;2023-10-09T09:27:46;22.90;52.70
81630;DHT22;71039;49.500;10.418;2023-10-09T09:30:28;22.80;52.50
81630;DHT22;71039;49.500;10.418;2023-10-09T09:32:54;22.80;51.90
81630;DHT22;71039;49.500;10.418;2023-10-09T09:35:19;22.70;52.60
81630;DHT22;71039;49.500;10.418;2023-10-09T09:37:52;22.70;52.70
81630;DHT22;71039;49.500;10.418;2023-10-09T09:40:18;22.60;52.50
81630;DHT22;71039;49.500;10.418;2023-10-09T09:42:44;22.60;52.70
81630;DHT22;71039;49.500;10.418;2023-10-09T09:45:11;22.60;52.90
81630;DHT22;71039;49.500;10.418;2023-10-09T09:47:37;22.60;52.80
81630;DHT22;71039;49.500;10.418;2023-10-09T09:50:05;22.60;52.70
81630;DHT22;71039;49.500;10.418;2023-10-09T09:52:31;22.60;52.50
81630;DHT22;71039;49.500;10.418;2023-10-09T09:54:56;22.60;52.40
81630;DHT22;71039;49.500;10.418;2023-10-09T09:57:23;22.60;52.30
81630;DHT22;71039;49.500;10.418;2023-10-09T09:59:49;22.50;52.20
81630;DHT22;71039;49.500;10.418;2023-10-09T10:02:19;22.50;52.20
81630;DHT22;71039;49.500;10.418;2023-10-09T10:04:47;22.50;52.20
81630;DHT22;71039;49.500;10.418;2023-10-09T10:07:15;22.50;52.20
81630;DHT22;71039;49.500;10.418;2023-10-09T10:09:42;22.50;52.20
81630;DHT22;71039;49.500;10.418;2023-10-09T10:12:08;22.50;52.30
81630;DHT22;71039;49.500;10.418;2023-10-09T10:14:58;22.50;52.40
81630;DHT22;71039;49.500;10.418;2023-10-09T10:17:23;22.40;52.00
81630;DHT22;71039;49.500;10.418;2023-10-09T10:20:04;22.40;52.40
81630;DHT22;71039;49.500;10.418;2023-10-09T10:22:30;22.40;52.20
81630;DHT22;71039;49.500;10.418;2023-10-09T10:24:56;22.30;52.40
81630;DHT22;71039;49.500;10.418;2023-10-09T10:27:23;22.30;52.20
81630;DHT22;71039;49.500;10.418;2023-10-09T10:32:54;22.30;51.70
81630;DHT22;71039;49.500;10.418;2023-10-09T10:35:20;22.20;51.70
81630;DHT22;71039;49.500;10.418;2023-10-09T10:37:46;22.20;52.20
81630;DHT22;71039;49.500;10.418;2023-10-09T10:40:12;22.20;52.30
81630;DHT22;71039;49.500;10.418;2023-10-09T10:42:47;22.10;52.50
81630;DHT22;71039;49.500;10.418;2023-10-09T10:45:18;22.10;52.40
81630;DHT22;71039;49.500;10.418;2023-10-09T10:47:43;22.10;52.60
81630;DHT22;71039;49.500;10.418;2023-10-09T10:50:09;22.10;52.80
81630;DHT22;71039;49.500;10.418;2023-10-09T10:52:35;22.10;52.80
81630;DHT22;71039;49.500;10.418;2023-10-09T10:55:11;22.10;52.60
81630;DHT22;71039;49.500;10.418;2023-10-09T10:57:37;22.20;52.30
81630;DHT22;71039;49.500;10.418;2023-10-09T11:00:10;22.10;52.60
81630;DHT22;71039;49.500;10.418;2023-10-09T11:02:36;22.20;52.40
81630;DHT22;71039;49.500;10.418;2023-10-09T11:05:02;22.20;52.60
81630;DHT22;71039;49.500;10.418;2023-10-09T11:07:27;22.20;52.70
81630;DHT22;71039;49.500;10.418;2023-10-09T11:09:54;22.20;52.90
81630;DHT22;71039;49.500;10.418;2023-10-09T11:12:20;22.20;52.90
81630;DHT22;71039;49.500;10.418;2023-10-09T11:14:46;22.20;52.70
81630;DHT22;71039;49.500;10.418;2023-10-09T11:17:18;22.30;53.00
81630;DHT22;71039;49.500;10.418;2023-10-09T11:19:43;22.40;52.80
81630;DHT22;71039;49.500;10.418;2023-10-09T11:22:09;22.50;52.90
81630;DHT22;71039;49.500;10.418;2023-10-09T11:24:35;22.50;52.80
81630;DHT22;71039;49.500;10.418;2023-10-09T11:27:05;22.60;52.70
81630;DHT22;71039;49.500;10.418;2023-10-09T11:29:31;22.60;52.50
81630;DHT22;71039;49.500;10.418;2023-10-09T11:32:07;22.70;52.50
81630;DHT22;71039;49.500;10.418;2023-10-09T11:34:33;22.70;52.10
81630;DHT22;71039;49.500;10.418;2023-10-09T11:37:05;22.80;52.50
81630;DHT22;71039;49.500;10.418;2023-10-09T11:39:38;22.80;52.40
81630;DHT22;71039;49.500;10.418;2023-10-09T11:42:05;22.90;52.30
81630;DHT22;71039;49.500;10.418;2023-10-09T11:44:41;22.90;52.10
81630;DHT22;71039;49.500;10.418;2023-10-09T11:47:08;23.00;51.50
81630;DHT22;71039;49.500;10.418;2023-10-09T11:49:33;23.00;51.60
81630;DHT22;71039;49.500;10.418;2023-10-09T11:52:06;23.00;51.30
81630;DHT22;71039;49.500;10.418;2023-10-09T11:54:32;23.00;50.90
81630;DHT22;71039;49.500;10.418;2023-10-09T11:56:58;23.00;51.00
81630;DHT22;71039;49.500;10.418;2023-10-09T11:59:23;22.90;51.00
81630;DHT22;71039;49.500;10.418;2023-10-09T12:01:49;22.90;50.90
81630;DHT22;71039;49.500;10.418;2023-10-09T12:04:14;22.90;50.90
81630;DHT22;71039;49.500;10.418;2023-10-09T12:06:40;22.90;50.90
81630;DHT22;71039;49.500;10.418;2023-10-09T12:09:05;22.80;50.90
81630;DHT22;71039;49.500;10.418;2023-10-09T12:11:31;22.80;50.90
81630;DHT22;71039;49.500;10.418;2023-10-09T12:13:56;22.80;50.80
81630;DHT22;71039;49.500;10.418;2023-10-09T12:16:23;22.80;50.70
81630;DHT22;71039;49.500;10.418;2023-10-09T12:18:49;22.80;50.80
81630;DHT22;71039;49.500;10.418;2023-10-09T12:21:14;22.80;50.90
81630;DHT22;71039;49.500;10.418;2023-10-09T12:23:40;22.70;51.00
81630;DHT22;71039;49.500;10.418;2023-10-09T12:26:05;22.70;51.20
81630;DHT22;71039;49.500;10.418;2023-10-09T12:28:31;22.70;51.30
81630;DHT22;71039;49.500;10.418;2023-10-09T12:30:57;22.80;51.30
81630;DHT22;71039;49.500;10.418;2023-10-09T12:33:22;22.80;51.20
81630;DHT22;71039;49.500;10.418;2023-10-09T12:35:48;22.80;51.20
81630;DHT22;71039;49.500;10.418;2023-10-09T12:38:14;22.90;51.10
81630;DHT22;71039;49.500;10.418;2023-10-09T12:40:39;22.90;51.00
81630;DHT22;71039;49.500;10.418;2023-10-09T12:43:05;23.00;51.00
81630;DHT22;71039;49.500;10.418;2023-10-09T12:45:34;23.00;50.80
81630;DHT22;71039;49.500;10.418;2023-10-09T12:47:59;23.10;50.50
81630;DHT22;71039;49.500;10.418;2023-10-09T12:50:29;23.10;50.40
81630;DHT22;71039;49.500;10.418;2023-10-09T12:52:57;23.20;50.00
81630;DHT22;71039;49.500;10.418;2023-10-09T12:55:23;23.20;50.00
81630;DHT22;71039;49.500;10.418;2023-10-09T12:57:48;23.30;49.90
81630;DHT22;71039;49.500;10.418;2023-10-09T13:00:14;23.30;49.80
81630;DHT22;71039;49.500;10.418;2023-10-09T13:02:39;23.40;49.70
81630;DHT22;71039;49.500;10.418;2023-10-09T13:05:05;23.40;49.50
81630;DHT22;71039;49.500;10.418;2023-10-09T13:07:31;23.40;49.40
81630;DHT22;71039;49.500;10.418;2023-10-09T13:09:56;23.50;49.20
81630;DHT22;71039;49.500;10.418;2023-10-09T13:12:22;23.50;49.10
81630;DHT22;71039;49.500;10.418;2023-10-09T13:14:47;23.60;49.20
81630;DHT22;71039;49.500;10.418;2023-10-09T13:17:13;23.60;49.10
81630;DHT22;71039;49.500;10.418;2023-10-09T13:19:38;23.70;49.00
81630;DHT22;71039;49.500;10.418;2023-10-09T13:22:04;23.70;48.80
81630;DHT22;71039;49.500;10.418;2023-10-09T13:24:30;23.80;48.60
81630;DHT22;71039;49.500;10.418;2023-10-09T13:26:55;23.80;48.40
81630;DHT22;71039;49.500;10.418;2023-10-09T13:29:21;23.90;48.10
81630;DHT22;71039;49.500;10.418;2023-10-09T13:31:46;23.90;47.90
81630;DHT22;71039;49.500;10.418;2023-10-09T13:34:12;24.00;47.70
81630;DHT22;71039;49.500;10.418;2023-10-09T13:36:38;24.00;47.60
81630;DHT22;71039;49.500;10.418;2023-10-09T13:39:07;24.00;47.50
81630;DHT22;71039;49.500;10.418;2023-10-09T13:41:32;24.00;47.30
81630;DHT22;71039;49.500;10.418;2023-10-09T13:43:58;24.00;47.30
81630;DHT22;71039;49.500;10.418;2023-10-09T13:46:24;24.00;47.20
81630;DHT22;71039;49.500;10.418;2023-10-09T13:48:49;24.00;47.00
81630;DHT22;71039;49.500;10.418;2023-10-09T13:51:15;24.00;46.90
81630;DHT22;71039;49.500;10.418;2023-10-09T13:53:41;24.00;46.80
81630;DHT22;71039;49.500;10.418;2023-10-09T13:56:10;24.00;46.70
81630;DHT22;71039;49.500;10.418;2023-10-09T13:58:36;24.00;46.50
81630;DHT22;71039;49.500;10.418;2023-10-09T14:01:01;24.00;46.50
81630;DHT22;71039;49.500;10.418;2023-10-09T14:03:27;24.00;46.40
81630;DHT22;71039;49.500;10.418;2023-10-09T14:05:52;24.00;46.40
81630;DHT22;71039;49.500;10.418;2023-10-09T14:08:20;24.00;46.40
81630;DHT22;71039;49.500;10.418;2023-10-09T14:10:45;24.00;46.20
81630;DHT22;71039;49.500;10.418;2023-10-09T14:13:11;24.00;46.20
81630;DHT22;71039;49.500;10.418;2023-10-09T14:15:36;23.90;46.10
81630;DHT22;71039;49.500;10.418;2023-10-09T14:18:02;23.90;46.00
81630;DHT22;71039;49.500;10.418;2023-10-09T14:20:28;23.90;46.00
81630;DHT22;71039;49.500;10.418;2023-10-09T14:22:53;23.90;46.00
81630;DHT22;71039;49.500;10.418;2023-10-09T14:25:19;23.80;45.90
81630;DHT22;71039;49.500;10.418;2023-10-09T14:27:44;23.80;45.80
81630;DHT22;71039;49.500;10.418;2023-10-09T14:30:10;23.80;45.60
81630;DHT22;71039;49.500;10.418;2023-10-09T14:32:36;23.70;45.50
81630;DHT22;71039;49.500;10.418;2023-10-09T14:35:01;23.60;45.50
81630;DHT22;71039;49.500;10.418;2023-10-09T14:37:27;23.60;45.40
81630;DHT22;71039;49.500;10.418;2023-10-09T14:39:53;23.60;45.30
81630;DHT22;71039;49.500;10.418;2023-10-09T14:42:19;23.60;45.30
81630;DHT22;71039;49.500;10.418;2023-10-09T14:44:44;23.60;45.10
81630;DHT22;71039;49.500;10.418;2023-10-09T14:47:10;23.60;45.10
81630;DHT22;71039;49.500;10.418;2023-10-09T14:49:36;23.50;45.10
81630;DHT22;71039;49.500;10.418;2023-10-09T14:52:02;23.50;45.10
81630;DHT22;71039;49.500;10.418;2023-10-09T14:54:28;23.50;45.10
81630;DHT22;71039;49.500;10.418;2023-10-09T14:56:53;23.40;45.00
81630;DHT22;71039;49.500;10.418;2023-10-09T14:59:19;23.40;45.10
81630;DHT22;71039;49.500;10.418;2023-10-09T15:01:44;23.40;45.10
81630;DHT22;71039;49.500;10.418;2023-10-09T15:04:10;23.40;45.00
81630;DHT22;71039;49.500;10.418;2023-10-09T15:06:35;23.30;45.00
81630;DHT22;71039;49.500;10.418;2023-10-09T15:09:01;23.30;45.00
81630;DHT22;71039;49.500;10.418;2023-10-09T15:11:27;23.30;45.00